Saturday, July 21, 2018, 3:25 AM EDT
Back to Local

KLBE, Latrobe / Westmorland

Location: Latrobe, PA, United States Lat: 40.283
Local Time: 3:25 AM EDT ( 7:25 GMT) Lon: -79.4
Time Zone: US/Eastern Elev: 1184 ft

Show me the last for .
Show Decoded

2018-07-21 03:15 METAR KLBE 210715Z AUTO 13013KT 10SM BKN120 22/16 A2991 RMK AO2 =
2018-07-21 02:55 METAR KLBE 210655Z AUTO 12008G17KT 10SM CLR 21/16 A2992 RMK AO2 =
2018-07-21 02:35 METAR KLBE 210635Z AUTO 12009G17KT 10SM CLR 22/16 A2991 RMK AO2 =
2018-07-21 02:15 METAR KLBE 210615Z AUTO 12011G20KT 10SM CLR 22/16 A2992 RMK AO2 =
2018-07-21 01:55 METAR KLBE 210555Z AUTO 12008KT 10SM FEW080 FEW120 22/16 A2992 RMK AO2 =
2018-07-21 01:35 METAR KLBE 210535Z AUTO 13008G15KT 10SM BKN080 BKN120 22/16 A2993 RMK AO2 =
2018-07-21 01:15 METAR KLBE 210515Z AUTO 13011G19KT 10SM SCT075 OVC120 23/16 A2993 RMK AO2 =
2018-07-21 00:55 METAR KLBE 210455Z AUTO 13010G15KT 10SM BKN120 23/16 A2994 RMK AO2 =
2018-07-21 00:35 METAR KLBE 210435Z AUTO 14008G17KT 110V170 10SM SCT075 SCT090 OVC120 23/16 A2994
                 RMK AO2 =
2018-07-21 00:15 METAR KLBE 210415Z AUTO 14010G18KT 10SM BKN075 OVC100 23/16 A2995 RMK AO2 =
2018-07-20 23:55 METAR KLBE 210355Z AUTO 14013G20KT 10SM OVC095 23/16 A2995 RMK AO2 =
2018-07-20 23:35 METAR KLBE 210335Z AUTO 12012G21KT 10SM SCT100 23/16 A2994 RMK AO2 =
2018-07-20 23:15 METAR KLBE 210315Z AUTO 13016G21KT 10SM SCT110 23/16 A2994 RMK AO2 =
2018-07-20 22:55 METAR KLBE 210255Z AUTO 13009G17KT 10SM BKN120 23/16 A2995 RMK AO2 =
2018-07-20 22:35 METAR KLBE 210235Z AUTO 13008KT 10SM FEW060 FEW120 23/16 A2996 RMK AO2 =
2018-07-20 22:15 METAR KLBE 210215Z AUTO 14005KT 10SM SCT060 24/16 A2997 RMK AO2 =
2018-07-20 21:50 METAR KLBE 210150Z 19007KT 10SM FEW070 24/17 A2996 =
2018-07-20 20:50 METAR KLBE 210050Z 18010G20KT 10SM SCT060 24/16 A2993 =
2018-07-20 19:50 METAR KLBE 202350Z 16008KT 10SM FEW065 BKN090 26/17 A2995 =
2018-07-20 18:50 METAR KLBE 202250Z 21009KT 10SM BKN049 OVC090 24/20 A2997 =
2018-07-20 17:50 METAR KLBE 202150Z 16007G15KT 10SM SCT060 26/17 A2995 =
2018-07-20 16:50 METAR KLBE 202050Z 16015G25KT 10SM SCT060 28/18 A2995 =
2018-07-20 15:50 METAR KLBE 201950Z 16015G20KT 10SM SCT060 28/18 A2996 =
2018-07-20 14:45 METAR KLBE 201845Z 15012KT 15SM SCT055 28/18 A3000 =
2018-07-20 13:45 METAR KLBE 201745Z 17014KT 15SM SCT055 28/17 A3002 =
2018-07-20 12:45 METAR KLBE 201645Z 17012KT 15SM FEW046 SCT075 28/17 A3003 =
2018-07-20 11:47 METAR KLBE 201547Z 17012KT 15SM FEW046 SCT075 27/16 A3004 =
2018-07-20 10:47 METAR KLBE 201447Z 18007KT 15SM FEW060 26/16 A3005 =
2018-07-20 09:47 METAR KLBE 201347Z 21005KT 15SM FEW060 25/16 A3006 =
2018-07-20 08:45 METAR KLBE 201245Z 19005KT 15SM FEW065 23/16 A3007 =
2018-07-20 07:45 METAR KLBE 201145Z 17006KT 15SM FEW060 22/15 A3006 =
2018-07-20 06:45 METAR KLBE 201045Z 00000KT 15SM SKC 20/15 A3006 =
2018-07-20 05:55 METAR KLBE 200955Z AUTO 00000KT 10SM CLR 19/14 A3006 RMK AO2 =
2018-07-20 05:35 METAR KLBE 200935Z AUTO 25004KT 10SM CLR 19/14 A3006 RMK AO2 =
2018-07-20 05:15 METAR KLBE 200915Z AUTO 00000KT 10SM CLR 20/14 A3006 RMK AO2 =
2018-07-20 04:55 METAR KLBE 200855Z AUTO 22006KT 10SM CLR 19/14 A3006 RMK AO2 =
2018-07-20 04:35 METAR KLBE 200835Z AUTO VRB03KT 10SM CLR 20/14 A3006 RMK AO2 =
2018-07-20 04:15 METAR KLBE 200815Z AUTO VRB05KT 10SM CLR 20/14 A3006 RMK AO2 =
2018-07-20 03:55 METAR KLBE 200755Z AUTO 00000KT 10SM CLR 20/14 A3006 RMK AO2 =
2018-07-20 03:35 METAR KLBE 200735Z AUTO 23004KT 10SM CLR 20/14 A3006 RMK AO2 =

Support USWX by starting your Amazon purchase here.